createdAt,value
2022-12-08T00:01:24.051Z,10.50
2022-12-08T00:03:51.518Z,10.30
2022-12-08T00:07:13.051Z,12.17
2022-12-08T00:09:41.796Z,10.10
2022-12-08T00:12:13.128Z,10.80
2022-12-08T00:14:45.606Z,11.60
2022-12-08T00:17:14.395Z,12.10
2022-12-08T00:19:41.775Z,12.00
2022-12-08T00:22:10.243Z,12.40
2022-12-08T00:24:39.914Z,12.30
2022-12-08T00:27:12.553Z,10.83
2022-12-08T00:29:39.451Z,11.57
2022-12-08T00:32:07.103Z,10.00
2022-12-08T00:34:34.317Z,9.17
2022-12-08T00:37:01.169Z,8.33
2022-12-08T00:39:28.323Z,8.70
2022-12-08T00:42:13.260Z,10.00
2022-12-08T00:44:41.494Z,9.07
2022-12-08T00:47:08.249Z,10.20
2022-12-08T00:49:34.927Z,8.90
2022-12-08T00:52:02.012Z,11.00
2022-12-08T00:54:28.851Z,10.30
2022-12-08T00:56:55.538Z,10.07
2022-12-08T00:59:22.276Z,9.83
2022-12-08T01:01:49.038Z,9.40
2022-12-08T01:04:18.488Z,11.47
2022-12-08T01:06:45.574Z,10.60
2022-12-08T01:09:14.117Z,9.20
2022-12-08T01:11:40.898Z,9.97
2022-12-08T01:14:07.684Z,7.97
2022-12-08T01:16:36.233Z,7.67
2022-12-08T01:19:03.726Z,9.90
2022-12-08T01:21:30.441Z,9.77
2022-12-08T01:24:00.358Z,8.80
2022-12-08T01:26:27.076Z,9.20
2022-12-08T01:28:53.986Z,10.50
2022-12-08T01:31:22.334Z,8.60
2022-12-08T01:33:49.723Z,7.70
2022-12-08T01:36:25.652Z,9.97
2022-12-08T01:38:54.004Z,9.23
2022-12-08T01:41:27.082Z,9.77
2022-12-08T01:44:10.921Z,8.20
2022-12-08T01:46:42.968Z,8.40
2022-12-08T01:49:15.927Z,9.60
2022-12-08T01:51:48.980Z,9.60
2022-12-08T01:54:16.395Z,10.10
2022-12-08T01:56:52.897Z,9.50
2022-12-08T01:59:20.032Z,9.50
2022-12-08T02:01:51.062Z,8.83
2022-12-08T02:04:18.168Z,9.70
2022-12-08T02:06:48.495Z,8.83
2022-12-08T02:09:15.483Z,8.33
2022-12-08T02:11:42.183Z,7.97
2022-12-08T02:14:11.777Z,8.73
2022-12-08T02:16:59.657Z,9.10
2022-12-08T02:19:45.137Z,7.80
2022-12-08T02:22:23.593Z,8.63
2022-12-08T02:25:01.628Z,7.27
2022-12-08T02:27:32.904Z,8.30
2022-12-08T02:30:05.792Z,8.27
2022-12-08T02:33:09.346Z,7.70
2022-12-08T02:35:53.565Z,7.83
2022-12-08T02:39:00.767Z,8.90
2022-12-08T02:41:30.340Z,6.83
2022-12-08T02:44:27.055Z,8.07
2022-12-08T02:47:06.400Z,6.87
2022-12-08T02:49:34.467Z,7.47
2022-12-08T02:52:24.900Z,7.40
2022-12-08T02:55:06.478Z,9.10
2022-12-08T02:57:48.991Z,8.40
2022-12-08T03:00:24.553Z,9.97
2022-12-08T03:03:15.407Z,8.60
2022-12-08T03:06:18.286Z,7.17
2022-12-08T03:09:03.302Z,7.57
2022-12-08T03:11:53.191Z,7.90
2022-12-08T03:14:22.653Z,7.20
2022-12-08T03:16:55.249Z,8.57
2022-12-08T03:19:28.215Z,9.60
2022-12-08T03:22:03.555Z,9.53
2022-12-08T03:24:37.393Z,7.73
2022-12-08T03:27:08.738Z,8.20
2022-12-08T03:29:35.831Z,8.40
2022-12-08T03:32:23.831Z,8.80
2022-12-08T03:34:51.927Z,9.33
2022-12-08T03:37:18.910Z,9.00
2022-12-08T03:39:45.623Z,8.67
2022-12-08T03:42:12.386Z,8.70
2022-12-08T03:44:39.077Z,7.80
2022-12-08T03:47:05.905Z,8.20
2022-12-08T03:49:32.595Z,8.17
2022-12-08T03:51:59.313Z,8.53
2022-12-08T03:54:26.022Z,8.90
2022-12-08T03:56:52.967Z,10.37
2022-12-08T03:59:19.951Z,9.93
2022-12-08T04:01:46.759Z,12.37
2022-12-08T04:04:13.530Z,10.30
2022-12-08T04:06:40.230Z,9.40
2022-12-08T04:09:06.958Z,9.37
2022-12-08T04:11:33.661Z,10.10
2022-12-08T04:14:00.325Z,8.00
2022-12-08T04:16:28.092Z,9.47
2022-12-08T04:18:55.252Z,8.70
2022-12-08T04:21:22.333Z,8.00
2022-12-08T04:23:49.266Z,9.03
2022-12-08T04:26:17.039Z,9.60
2022-12-08T04:28:44.496Z,8.40
2022-12-08T04:31:11.470Z,8.67
2022-12-08T04:33:38.332Z,8.40
2022-12-08T04:36:06.625Z,8.10
2022-12-08T04:38:33.933Z,7.07
2022-12-08T04:41:01.073Z,7.70
2022-12-08T04:43:27.802Z,7.30
2022-12-08T04:45:54.716Z,8.07
2022-12-08T04:48:21.472Z,6.63
2022-12-08T04:50:48.230Z,9.10
2022-12-08T04:53:15.030Z,9.07
2022-12-08T04:55:45.585Z,8.13
2022-12-08T04:58:14.266Z,10.43
2022-12-08T05:00:41.957Z,8.40
2022-12-08T05:03:09.203Z,9.03
2022-12-08T05:05:36.045Z,8.60
2022-12-08T05:08:02.994Z,10.37
2022-12-08T05:10:29.778Z,10.43
2022-12-08T05:12:58.906Z,10.67
2022-12-08T05:15:25.846Z,7.93
2022-12-08T05:17:52.513Z,8.20
2022-12-08T05:20:19.258Z,8.50
2022-12-08T05:22:45.939Z,7.83
2022-12-08T05:25:12.683Z,8.80
2022-12-08T05:27:39.393Z,8.43
2022-12-08T05:30:06.984Z,7.97
2022-12-08T05:32:33.932Z,8.40
2022-12-08T05:35:00.595Z,11.17
2022-12-08T05:37:27.283Z,9.10
2022-12-08T05:39:53.975Z,8.43
2022-12-08T05:42:24.784Z,8.23
2022-12-08T05:44:52.532Z,8.33
2022-12-08T05:47:19.387Z,9.57
2022-12-08T05:49:46.182Z,8.73
2022-12-08T05:52:12.860Z,8.00
2022-12-08T05:54:39.574Z,8.50
2022-12-08T05:57:06.674Z,9.67
2022-12-08T05:59:33.393Z,8.23
2022-12-08T06:02:00.223Z,10.70
2022-12-08T06:04:27.077Z,9.97
2022-12-08T06:06:53.808Z,11.30
2022-12-08T06:09:20.544Z,7.63
2022-12-08T06:11:47.576Z,11.27
2022-12-08T06:14:14.404Z,13.63
2022-12-08T06:16:41.158Z,12.70
2022-12-08T06:19:07.881Z,10.97
2022-12-08T06:21:34.706Z,10.07
2022-12-08T06:24:01.454Z,11.77
2022-12-08T06:26:28.920Z,11.80
2022-12-08T06:28:55.580Z,11.20
2022-12-08T06:31:26.911Z,12.27
2022-12-08T06:33:55.123Z,12.03
2022-12-08T06:36:25.315Z,12.13
2022-12-08T06:38:52.464Z,11.17
2022-12-08T06:41:19.210Z,9.10
2022-12-08T06:43:46.140Z,8.53
2022-12-08T06:46:16.381Z,9.40
2022-12-08T06:48:43.407Z,10.17
2022-12-08T06:51:15.534Z,9.33
2022-12-08T06:53:43.988Z,9.90
2022-12-08T06:56:12.388Z,10.60
2022-12-08T06:58:39.505Z,8.93
2022-12-08T07:01:11.766Z,8.50
2022-12-08T07:03:39.539Z,9.40
2022-12-08T07:06:07.019Z,8.70
2022-12-08T07:08:34.729Z,11.43
2022-12-08T07:11:08.274Z,13.67
2022-12-08T07:13:35.003Z,15.35
2022-12-08T07:16:04.511Z,10.10
2022-12-08T07:18:31.168Z,9.80
2022-12-08T07:21:03.613Z,10.07
2022-12-08T07:23:30.234Z,9.10
2022-12-08T07:26:00.672Z,9.43
2022-12-08T07:28:27.295Z,10.17
2022-12-08T07:30:53.886Z,9.83
2022-12-08T07:33:20.577Z,8.97
2022-12-08T07:35:55.179Z,10.50
2022-12-08T07:38:21.870Z,10.33
2022-12-08T07:40:48.526Z,10.77
2022-12-08T07:43:15.197Z,10.07
2022-12-08T07:45:42.356Z,9.97
2022-12-08T07:48:09.127Z,9.20
2022-12-08T07:50:36.122Z,10.77
2022-12-08T07:53:02.779Z,10.30
2022-12-08T07:55:29.384Z,10.43
2022-12-08T07:57:56.038Z,10.70
2022-12-08T08:00:22.860Z,10.17
2022-12-08T08:02:49.684Z,10.63
2022-12-08T08:05:16.472Z,10.90
2022-12-08T08:07:43.823Z,11.40
2022-12-08T08:10:11.411Z,10.70
2022-12-08T08:12:38.920Z,10.77
2022-12-08T08:15:08.276Z,10.63
2022-12-08T08:17:36.669Z,11.00
2022-12-08T08:20:08.122Z,10.60
2022-12-08T08:22:36.156Z,10.27
2022-12-08T08:25:03.051Z,12.43
2022-12-08T08:27:29.771Z,11.97
2022-12-08T08:29:56.407Z,13.07
2022-12-08T08:32:23.039Z,12.47
2022-12-08T08:34:50.821Z,11.87
2022-12-08T08:37:17.553Z,10.63
2022-12-08T08:39:44.316Z,10.20
2022-12-08T08:42:10.981Z,11.40
2022-12-08T08:44:39.026Z,13.63
2022-12-08T08:47:05.967Z,13.00
2022-12-08T08:49:32.609Z,11.80
2022-12-08T08:51:59.330Z,10.90
2022-12-08T08:54:26.023Z,11.47
2022-12-08T08:56:52.778Z,9.77
2022-12-08T08:59:19.408Z,10.87
2022-12-08T09:01:46.185Z,11.40
2022-12-08T09:04:12.881Z,11.53
2022-12-08T09:06:39.783Z,12.40
2022-12-08T09:09:06.493Z,11.20
2022-12-08T09:11:33.348Z,12.77
2022-12-08T09:14:00.050Z,12.50
2022-12-08T09:16:26.749Z,11.20
2022-12-08T09:18:53.719Z,12.37
2022-12-08T09:21:23.775Z,12.20
2022-12-08T09:23:52.559Z,13.20
2022-12-08T09:26:22.522Z,13.83
2022-12-08T09:28:50.697Z,11.17
2022-12-08T09:31:18.848Z,13.20
2022-12-08T09:33:45.866Z,15.17
2022-12-08T09:36:12.493Z,14.33
2022-12-08T09:38:40.098Z,13.50
2022-12-08T09:41:20.094Z,14.20
2022-12-08T09:43:54.680Z,14.73
2022-12-08T09:46:21.639Z,14.70
2022-12-08T09:49:23.773Z,13.80
2022-12-08T09:51:50.617Z,15.20
2022-12-08T09:54:33.769Z,13.33
2022-12-08T09:57:06.564Z,14.37
2022-12-08T09:59:36.141Z,14.20
2022-12-08T10:02:11.607Z,14.87
2022-12-08T10:04:38.828Z,14.57
2022-12-08T10:07:26.657Z,16.40
2022-12-08T10:10:35.268Z,14.70
2022-12-08T10:13:21.916Z,16.10
2022-12-08T10:16:16.727Z,18.30
2022-12-08T10:18:56.800Z,13.70
2022-12-08T10:21:28.796Z,14.63
2022-12-08T10:24:03.980Z,13.40
2022-12-08T10:26:32.792Z,13.37
2022-12-08T10:29:02.886Z,12.37
2022-12-08T10:31:31.329Z,15.80
2022-12-08T10:34:00.748Z,17.53
2022-12-08T10:36:56.633Z,16.63
2022-12-08T10:39:30.218Z,16.00
2022-12-08T10:42:18.419Z,15.70
2022-12-08T10:44:53.225Z,13.90
2022-12-08T10:47:22.217Z,14.93
2022-12-08T10:50:12.910Z,16.10
2022-12-08T10:52:40.864Z,15.57
2022-12-08T10:55:18.708Z,15.40
2022-12-08T10:57:45.532Z,17.30
2022-12-08T11:00:14.884Z,18.17
2022-12-08T11:02:57.273Z,16.20
2022-12-08T11:05:29.533Z,15.47
2022-12-08T11:07:56.753Z,17.40
2022-12-08T11:10:42.610Z,12.67
2022-12-08T11:13:26.761Z,11.27
2022-12-08T11:15:57.473Z,12.67
2022-12-08T11:18:28.201Z,14.73
2022-12-08T11:21:01.533Z,15.40
2022-12-08T11:23:30.049Z,12.77
2022-12-08T11:26:03.664Z,15.27
2022-12-08T11:28:30.599Z,13.50
2022-12-08T11:31:03.908Z,12.43
2022-12-08T11:33:30.556Z,13.50
2022-12-08T11:36:00.241Z,13.87
2022-12-08T11:38:28.403Z,11.97
2022-12-08T11:41:14.214Z,15.63
2022-12-08T11:44:20.633Z,14.70
2022-12-08T11:46:53.397Z,13.93
2022-12-08T11:49:20.760Z,14.30
2022-12-08T11:52:00.028Z,14.17
2022-12-08T11:54:29.558Z,14.87
2022-12-08T11:57:02.067Z,14.07
2022-12-08T11:59:44.355Z,13.93
2022-12-08T12:02:18.446Z,16.20
2022-12-08T12:04:55.808Z,13.10
2022-12-08T12:07:52.188Z,14.57
2022-12-08T12:10:30.853Z,16.40
2022-12-08T12:13:22.867Z,14.43
2022-12-08T12:16:10.758Z,14.17
2022-12-08T12:19:00.287Z,13.67
2022-12-08T12:21:51.811Z,12.00
2022-12-08T12:24:27.476Z,14.63
2022-12-08T12:27:00.495Z,14.33
2022-12-08T12:29:33.540Z,13.60
2022-12-08T12:32:07.154Z,16.63
2022-12-08T12:34:37.347Z,13.77
2022-12-08T12:37:16.348Z,13.30
2022-12-08T12:39:51.999Z,12.60
2022-12-08T12:42:55.075Z,12.47
2022-12-08T12:45:21.737Z,10.37
2022-12-08T12:47:55.596Z,11.97
2022-12-08T12:50:34.949Z,12.47
2022-12-08T12:53:05.939Z,13.23
2022-12-08T12:55:53.115Z,11.40
2022-12-08T12:58:30.169Z,13.17
2022-12-08T13:01:12.088Z,14.67
2022-12-08T13:03:43.544Z,14.47
2022-12-08T13:06:15.172Z,13.87
2022-12-08T13:08:55.234Z,16.30
2022-12-08T13:11:23.361Z,15.00
2022-12-08T13:13:57.054Z,12.73
2022-12-08T13:16:26.212Z,12.00
2022-12-08T13:18:57.697Z,15.80
2022-12-08T13:21:31.905Z,14.40
2022-12-08T13:24:10.599Z,14.47
2022-12-08T13:27:06.444Z,12.73
2022-12-08T13:29:34.581Z,14.07
2022-12-08T13:32:02.981Z,13.30
2022-12-08T13:34:46.771Z,12.63
2022-12-08T13:37:13.824Z,13.23
2022-12-08T13:39:40.527Z,13.40
2022-12-08T13:42:12.281Z,14.40
2022-12-08T13:45:21.503Z,14.10
2022-12-08T13:48:21.520Z,11.03
2022-12-08T13:57:03.992Z,13.27
2022-12-08T13:59:34.611Z,14.60
2022-12-08T14:02:10.722Z,14.40
2022-12-08T14:05:09.468Z,12.53
2022-12-08T14:07:24.630Z,11.87
2022-12-08T14:09:52.826Z,11.30
2022-12-08T14:12:25.621Z,12.47
2022-12-08T14:15:03.358Z,11.00
2022-12-08T14:17:30.614Z,10.87
2022-12-08T14:20:12.378Z,12.60
2022-12-08T14:22:40.916Z,10.40
2022-12-08T14:25:13.531Z,10.97
2022-12-08T14:27:40.329Z,11.77
2022-12-08T14:30:29.087Z,12.03
2022-12-08T14:32:58.957Z,14.40
2022-12-08T14:35:28.179Z,14.03
2022-12-08T14:38:01.032Z,13.70
2022-12-08T14:40:41.630Z,13.13
2022-12-08T14:43:08.254Z,12.37
2022-12-08T14:46:02.533Z,14.70
2022-12-08T14:48:33.655Z,13.77
2022-12-08T14:51:03.516Z,12.00
2022-12-08T14:53:44.077Z,13.73
2022-12-08T14:56:27.239Z,14.43
2022-12-08T14:59:15.475Z,13.57
2022-12-08T15:01:43.914Z,12.53
2022-12-08T15:04:13.521Z,12.93
2022-12-08T15:07:05.450Z,14.70
2022-12-08T15:09:35.204Z,13.47
2022-12-08T15:12:26.366Z,12.13
2022-12-08T15:15:13.838Z,14.30
2022-12-08T15:17:40.415Z,14.33
2022-12-08T15:20:27.571Z,14.47
2022-12-08T15:22:58.597Z,13.47
2022-12-08T15:25:25.396Z,14.50
2022-12-08T15:27:57.248Z,14.30
2022-12-08T15:30:26.504Z,14.10
2022-12-08T15:32:54.333Z,15.00
2022-12-08T15:35:21.379Z,14.00
2022-12-08T15:37:48.059Z,13.80
2022-12-08T15:40:19.879Z,13.80
2022-12-08T15:42:46.596Z,15.27
2022-12-08T15:45:14.664Z,14.27
2022-12-08T15:47:42.587Z,15.03
2022-12-08T15:50:17.903Z,12.00
2022-12-08T15:52:44.825Z,10.73
2022-12-08T15:55:15.820Z,11.93
2022-12-08T16:00:52.959Z,14.10
2022-12-08T16:04:02.701Z,13.20
2022-12-08T16:07:12.331Z,14.03
2022-12-08T16:09:13.106Z,14.97
2022-12-08T16:12:08.977Z,15.00
2022-12-08T16:17:24.503Z,14.67
2022-12-08T16:19:51.181Z,16.43
2022-12-08T16:25:23.344Z,14.70
2022-12-08T16:28:03.106Z,18.80
2022-12-08T16:30:36.005Z,17.87
2022-12-08T16:33:02.831Z,15.50
2022-12-08T16:35:31.013Z,15.37
2022-12-08T16:37:57.985Z,14.20
2022-12-08T16:40:25.186Z,16.27
2022-12-08T16:42:51.914Z,14.90
2022-12-08T16:45:25.120Z,15.20
2022-12-08T16:47:54.319Z,15.90
2022-12-08T16:50:33.246Z,17.27
2022-12-08T16:53:11.322Z,18.07
2022-12-08T16:55:38.556Z,15.57
2022-12-08T16:58:06.077Z,14.63
2022-12-08T17:00:37.375Z,14.00
2022-12-08T17:03:05.824Z,14.43
2022-12-08T17:05:32.496Z,12.30
2022-12-08T17:07:59.402Z,14.17
2022-12-08T17:10:29.499Z,14.27
2022-12-08T17:12:56.775Z,14.60
2022-12-08T17:15:25.673Z,12.87
2022-12-08T17:17:53.095Z,13.77
2022-12-08T17:20:23.118Z,11.37
2022-12-08T17:22:50.146Z,10.30
2022-12-08T17:25:16.967Z,11.10
2022-12-08T17:27:43.600Z,10.90
2022-12-08T17:30:15.570Z,12.00
2022-12-08T17:32:43.262Z,12.23
2022-12-08T17:35:10.615Z,12.07
2022-12-08T17:37:37.406Z,10.97
2022-12-08T17:40:04.974Z,11.87
2022-12-08T17:42:31.840Z,11.07
2022-12-08T17:44:58.481Z,10.90
2022-12-08T17:47:25.153Z,11.50
2022-12-08T17:49:51.978Z,11.10
2022-12-08T17:52:18.675Z,11.37
2022-12-08T17:54:45.325Z,11.17
2022-12-08T17:57:12.083Z,11.70
2022-12-08T17:59:38.790Z,13.00
2022-12-08T18:02:05.656Z,13.37
2022-12-08T18:04:32.375Z,13.23
2022-12-08T18:07:01.329Z,12.13
2022-12-08T18:09:31.086Z,13.87
2022-12-08T18:11:57.916Z,13.30
2022-12-08T18:14:24.736Z,12.67
2022-12-08T18:16:51.459Z,11.53
2022-12-08T18:19:18.227Z,11.33
2022-12-08T18:21:44.991Z,12.07
2022-12-08T18:24:22.213Z,13.67
2022-12-08T18:26:52.202Z,10.57
2022-12-08T18:29:20.354Z,11.80
2022-12-08T18:31:47.741Z,11.17
2022-12-08T18:34:14.637Z,11.87
2022-12-08T18:36:41.432Z,11.87
2022-12-08T18:39:20.609Z,11.43
2022-12-08T18:41:47.283Z,12.37
2022-12-08T18:44:13.949Z,13.40
2022-12-08T18:46:40.646Z,14.17
2022-12-08T18:49:11.202Z,13.50
2022-12-08T18:51:38.243Z,14.27
2022-12-08T18:54:04.972Z,13.00
2022-12-08T18:56:33.712Z,13.70
2022-12-08T18:59:07.253Z,13.30
2022-12-08T19:01:36.116Z,14.53
2022-12-08T19:06:54.023Z,12.90
2022-12-08T19:09:22.680Z,13.90
2022-12-08T19:11:49.470Z,13.47
2022-12-08T19:14:16.303Z,14.13
2022-12-08T19:16:42.961Z,14.17
2022-12-08T19:19:09.767Z,12.20
2022-12-08T19:21:42.869Z,12.23
2022-12-08T19:24:12.791Z,12.70
2022-12-08T19:26:39.557Z,11.67
2022-12-08T19:29:06.262Z,11.00
2022-12-08T19:31:33.082Z,11.57
2022-12-08T19:33:59.730Z,12.50
2022-12-08T19:36:27.673Z,12.00
2022-12-08T19:39:12.844Z,12.50
2022-12-08T19:42:18.049Z,12.17
2022-12-08T19:44:53.869Z,11.67
2022-12-08T19:47:27.340Z,15.30
2022-12-08T19:50:15.672Z,26.40
2022-12-08T19:52:43.471Z,16.73
2022-12-08T19:55:10.469Z,13.07
2022-12-08T19:57:37.510Z,13.90
2022-12-08T20:00:06.111Z,11.70
2022-12-08T20:02:37.528Z,14.20
2022-12-08T20:05:08.472Z,15.20
2022-12-08T20:07:35.713Z,13.30
2022-12-08T20:10:18.421Z,14.43
2022-12-08T20:12:45.413Z,10.70
2022-12-08T20:15:12.247Z,14.30
2022-12-08T20:17:39.248Z,13.77
2022-12-08T20:20:07.893Z,15.80
2022-12-08T20:22:35.258Z,15.37
2022-12-08T20:25:02.859Z,15.23
2022-12-08T20:27:29.670Z,15.60
2022-12-08T20:29:56.406Z,15.07
2022-12-08T20:32:23.175Z,16.60
2022-12-08T20:34:49.924Z,13.97
2022-12-08T20:37:16.785Z,18.10
2022-12-08T20:39:43.587Z,14.50
2022-12-08T20:42:13.809Z,15.20
2022-12-08T20:44:44.522Z,19.02
2022-12-08T20:47:12.545Z,16.00
2022-12-08T20:49:39.372Z,15.50
2022-12-08T20:52:06.400Z,14.50
2022-12-08T20:54:34.633Z,13.30
2022-12-08T20:57:01.701Z,14.00
2022-12-08T20:59:28.661Z,12.87
2022-12-08T21:01:55.889Z,14.60
2022-12-08T21:04:23.406Z,14.40
2022-12-08T21:06:50.692Z,14.60
2022-12-08T21:09:17.666Z,13.70
2022-12-08T21:11:45.090Z,13.70
2022-12-08T21:14:13.430Z,14.20
2022-12-08T21:16:40.262Z,13.87
2022-12-08T21:19:07.251Z,14.43
2022-12-08T21:21:34.185Z,15.20
2022-12-08T21:24:01.437Z,14.80
2022-12-08T21:26:28.834Z,14.00
2022-12-08T21:28:59.089Z,13.80
2022-12-08T21:31:27.103Z,13.60
2022-12-08T21:33:55.320Z,12.77
2022-12-08T21:36:22.918Z,12.37
2022-12-08T21:38:50.337Z,14.60
2022-12-08T21:41:49.439Z,13.43
2022-12-08T21:44:20.181Z,11.87
2022-12-08T21:46:46.986Z,13.60
2022-12-08T21:49:13.877Z,14.20
2022-12-08T21:51:42.373Z,12.50
2022-12-08T21:54:18.038Z,12.43
2022-12-08T21:56:46.588Z,12.90
2022-12-08T21:59:13.491Z,14.77
2022-12-08T22:01:40.460Z,13.37
2022-12-08T22:04:07.587Z,11.90
2022-12-08T22:06:34.696Z,11.23
2022-12-08T22:09:02.696Z,13.47
2022-12-08T22:11:29.960Z,13.40
2022-12-08T22:13:56.751Z,14.13
2022-12-08T22:16:23.895Z,12.67
2022-12-08T22:18:50.995Z,14.30
2022-12-08T22:21:18.374Z,12.23
2022-12-08T22:23:45.661Z,12.20
2022-12-08T22:26:13.539Z,13.60
2022-12-08T22:28:42.475Z,14.23
2022-12-08T22:31:11.446Z,18.57
2022-12-08T22:33:39.432Z,19.00
2022-12-08T22:36:10.872Z,20.40
2022-12-08T22:38:38.070Z,24.63
2022-12-08T22:41:05.689Z,31.30
2022-12-08T22:43:33.483Z,31.43
2022-12-08T22:46:00.690Z,25.87
2022-12-08T22:48:28.050Z,26.63
2022-12-08T22:50:59.825Z,25.83
2022-12-08T22:53:26.878Z,22.40
2022-12-08T22:55:54.311Z,20.40
2022-12-08T22:58:21.824Z,24.53
2022-12-08T23:00:48.698Z,18.50
2022-12-08T23:03:15.671Z,18.60
2022-12-08T23:05:42.558Z,22.23
2022-12-08T23:08:13.941Z,22.17
2022-12-08T23:10:41.122Z,19.00
2022-12-08T23:13:08.794Z,18.80
2022-12-08T23:15:35.738Z,17.90
2022-12-08T23:18:02.870Z,19.87
2022-12-08T23:20:29.767Z,17.30
2022-12-08T23:22:56.800Z,15.50
2022-12-08T23:25:23.469Z,15.60
2022-12-08T23:27:50.315Z,14.00
2022-12-08T23:30:17.365Z,14.90
2022-12-08T23:32:44.561Z,16.70
2022-12-08T23:35:11.805Z,14.80
2022-12-08T23:37:38.781Z,14.63
2022-12-08T23:40:06.941Z,12.13
2022-12-08T23:42:33.961Z,13.40
2022-12-08T23:45:00.922Z,12.40
2022-12-08T23:47:30.982Z,11.80
2022-12-08T23:49:57.829Z,10.87
2022-12-08T23:52:24.846Z,11.53
2022-12-08T23:54:52.751Z,11.40
2022-12-08T23:57:19.725Z,11.50
2022-12-08T23:59:46.420Z,12.20
